Plumville, Kentucky
Current Conditions -  °F | °C
As of 1:35 PM on Saturday 20 Dec 2014 (Local Time) from KFGX Reporting Station
Overcast Overcast  
Wind Chill: 31°   Ceiling: 1500
Heat Index: 31°   Visibility: 10mi
Dew Point: 26°   Wind: 0mph
Humidity: 81%   Direction: NA
Pressure: 30.26"   Gusts: NA
Location:  38.585°N, 83.7789°W
Report Text: KFGX 201835Z AUTO 00000KT 10SM OVC015 00/M03 A3026 RMK AO2 T10051034
Loading
Personal Weather Stations






























Interactive Weather Map New forecast layout! Learn more

10-Day Weather Forecast

Advertisements
Track Severe Weather on mobile